Time;durP1;ratioP1;P1;durP2;ratioP2;P2;SDS_P1;SDS_P2;PMS_P1;PMS_P2;Temp;Humidity;BMP_temperature;BMP_pressure;BME280_temperature;BME280_humidity;BME280_pressure;Samples;Min_cycle;Max_cycle;Signal;HPM_P1;HPM_P2
2022/06/14 00:00:55;;;;;;;4.73;2.37;;;22.10;68.00;;;;;;4974498;28;20474;-68
2022/06/14 00:03:31;;;;;;;4.63;2.30;;;22.10;68.00;;;;;;4973272;28;20457;-68
2022/06/14 00:06:10;;;;;;;3.83;2.20;;;22.10;68.00;;;;;;4973337;28;20849;-68
2022/06/14 00:08:38;;;;;;;4.20;1.93;;;22.10;67.90;;;;;;4972852;28;20472;-68
2022/06/14 00:11:08;;;;;;;4.47;2.40;;;22.00;67.80;;;;;;4973065;28;20454;-68
2022/06/14 00:13:34;;;;;;;2.43;1.80;;;22.00;67.90;;;;;;4956996;28;20509;-68
2022/06/14 00:16:03;;;;;;;3.17;1.73;;;22.00;68.00;;;;;;4974581;28;20983;-68
2022/06/14 00:18:29;;;;;;;3.20;2.27;;;22.00;68.10;;;;;;4972332;28;20998;-68
2022/06/14 00:20:56;;;;;;;3.27;2.10;;;21.90;68.00;;;;;;4972786;28;20468;-69
2022/06/14 00:23:24;;;;;;;4.40;2.00;;;22.00;68.10;;;;;;4957650;28;20430;-68
2022/06/14 00:25:53;;;;;;;2.70;1.77;;;21.90;68.00;;;;;;4973898;28;20501;-68
2022/06/14 00:28:20;;;;;;;4.70;1.93;;;21.90;68.10;;;;;;4989132;28;20489;-68
2022/06/14 00:30:51;;;;;;;4.67;2.03;;;21.90;68.30;;;;;;4972096;28;20461;-68
2022/06/14 00:33:17;;;;;;;3.37;2.27;;;21.90;68.20;;;;;;4956593;28;20846;-68
2022/06/14 00:35:46;;;;;;;2.70;1.53;;;21.90;68.30;;;;;;4972292;28;20438;-68
2022/06/14 00:38:16;;;;;;;1.67;1.30;;;21.90;68.10;;;;;;4972634;28;20520;-68
2022/06/14 00:40:54;;;;;;;3.00;1.67;;;21.80;68.00;;;;;;4956202;28;20504;-68
2022/06/14 00:43:27;;;;;;;4.00;1.70;;;21.80;68.20;;;;;;4972883;28;20950;-68
2022/06/14 00:46:16;;;;;;;4.40;1.50;;;21.80;68.30;;;;;;4973792;28;20430;-68
2022/06/14 00:48:47;;;;;;;3.43;1.60;;;21.80;68.30;;;;;;4956560;28;20421;-68
2022/06/14 00:51:23;;;;;;;2.43;1.67;;;21.80;68.40;;;;;;4988480;28;20446;-68
2022/06/14 00:53:49;;;;;;;2.90;1.50;;;21.80;69.30;;;;;;4972200;28;20436;-67
2022/06/14 00:56:33;;;;;;;2.83;1.50;;;21.70;68.30;;;;;;4972465;28;20422;-68
2022/06/14 00:59:14;;;;;;;3.57;1.83;;;21.70;68.30;;;;;;4972627;28;20722;-68
2022/06/14 01:01:42;;;;;;;3.43;1.97;;;21.70;68.80;;;;;;4971930;28;20456;-68
2022/06/14 01:04:19;;;;;;;2.03;1.47;;;21.60;68.30;;;;;;4956406;28;20504;-68
2022/06/14 01:07:26;;;;;;;2.80;1.50;;;21.70;68.40;;;;;;4965956;28;20482;-68
2022/06/14 01:10:16;;;;;;;2.93;1.60;;;21.60;68.40;;;;;;4950080;28;20434;-68
2022/06/14 01:12:47;;;;;;;2.10;1.10;;;21.60;68.40;;;;;;4971960;28;20454;-68
2022/06/14 01:15:20;;;;;;;3.80;1.70;;;21.60;68.40;;;;;;4973675;28;20512;-68
2022/06/14 01:18:04;;;;;;;3.13;1.83;;;21.50;68.30;;;;;;4956103;28;20445;-68
2022/06/14 01:20:35;;;;;;;3.00;1.70;;;21.50;68.20;;;;;;4972476;28;20917;-68
2022/06/14 01:23:05;;;;;;;4.70;2.00;;;21.50;68.40;;;;;;4971990;28;20516;-68
2022/06/14 01:25:36;;;;;;;2.77;1.60;;;21.50;68.50;;;;;;4973244;28;20446;-68
2022/06/14 01:28:03;;;;;;;2.93;1.60;;;21.50;68.50;;;;;;4971982;28;20429;-68
2022/06/14 01:30:36;;;;;;;3.87;2.00;;;21.50;68.50;;;;;;4973331;28;20545;-68
2022/06/14 01:33:08;;;;;;;3.43;1.53;;;21.40;68.40;;;;;;4955826;28;20432;-68
2022/06/14 01:35:38;;;;;;;4.67;2.30;;;21.40;68.50;;;;;;4971726;28;20437;-68
2022/06/14 01:38:09;;;;;;;2.73;1.57;;;21.40;68.50;;;;;;4971584;28;20954;-68
2022/06/14 01:41:07;;;;;;;4.10;1.93;;;21.40;68.50;;;;;;4955693;28;20575;-68
2022/06/14 01:44:10;;;;;;;2.30;1.60;;;21.40;68.50;;;;;;4955864;28;20433;-68
2022/06/14 01:46:46;;;;;;;3.40;2.00;;;21.30;68.30;;;;;;4971704;28;20933;-68
2022/06/14 01:52:59;;;;;;;2.43;1.63;;;21.30;68.40;;;;;;4973059;28;20976;-68
2022/06/14 01:55:34;;;;;;;4.20;1.57;;;21.20;68.40;;;;;;4956152;28;20520;-68
2022/06/14 01:58:32;;;;;;;1.93;1.63;;;21.20;68.50;;;;;;4971830;28;20438;-68
2022/06/14 02:01:19;;;;;;;2.73;1.77;;;21.20;68.40;;;;;;4964368;28;20488;-68
2022/06/14 02:06:58;;;;;;;3.57;1.40;;;21.20;68.60;;;;;;4973884;28;20453;-68
2022/06/14 02:09:48;;;;;;;2.60;1.60;;;21.20;68.60;;;;;;4943959;28;20421;-67
2022/06/14 02:12:23;;;;;;;2.50;1.70;;;21.10;68.60;;;;;;4943687;28;20461;-69
2022/06/14 02:15:06;;;;;;;2.57;1.40;;;21.10;68.60;;;;;;4977071;28;20479;-69
2022/06/14 02:17:44;;;;;;;1.93;1.30;;;21.10;68.60;;;;;;4959390;28;20797;-69
2022/06/14 02:20:22;;;;;;;2.13;1.70;;;21.10;68.60;;;;;;4975568;28;20476;-69
2022/06/14 02:22:54;;;;;;;2.90;1.30;;;21.10;68.60;;;;;;4976388;28;20424;-69
2022/06/14 02:25:27;;;;;;;3.33;1.70;;;21.00;68.50;;;;;;4975349;28;20456;-69
2022/06/14 02:28:01;;;;;;;2.37;1.30;;;21.00;68.50;;;;;;4976611;28;20449;-69
2022/06/14 02:30:37;;;;;;;1.90;1.27;;;21.00;68.50;;;;;;4975454;28;20455;-69
2022/06/14 02:33:23;;;;;;;1.63;1.53;;;21.00;68.50;;;;;;4976544;28;20546;-69
2022/06/14 02:36:05;;;;;;;1.37;1.27;;;21.00;68.50;;;;;;4975391;28;20808;-69
2022/06/14 02:38:59;;;;;;;2.93;1.50;;;21.00;68.50;;;;;;4974114;28;20513;-69
2022/06/14 02:41:42;;;;;;;3.43;1.00;;;20.90;68.40;;;;;;4976239;28;20494;-69
2022/06/14 02:44:16;;;;;;;3.83;1.30;;;20.90;68.40;;;;;;4975159;28;20459;-70
2022/06/14 02:46:48;;;;;;;1.60;1.30;;;20.90;68.40;;;;;;4976192;28;20846;-69
2022/06/14 02:49:23;;;;;;;2.13;1.30;;;20.80;68.30;;;;;;4959323;28;20405;-69
2022/06/14 02:52:03;;;;;;;4.33;1.57;;;20.80;68.30;;;;;;5007728;28;20526;-69
2022/06/14 02:54:45;;;;;;;1.57;1.10;;;20.80;68.30;;;;;;4975914;28;20432;-74
2022/06/14 02:57:38;;;;;;;2.50;1.20;;;20.80;68.30;;;;;;4975025;28;20404;-73
2022/06/14 03:00:13;;;;;;;2.40;1.33;;;20.80;68.30;;;;;;4974615;28;21007;-73
2022/06/14 03:02:50;;;;;;;2.43;1.40;;;20.80;68.40;;;;;;4969380;28;20779;-73
2022/06/14 03:05:16;;;;;;;2.13;1.00;;;20.70;68.20;;;;;;4996070;28;20452;-74
2022/06/14 03:08:14;;;;;;;1.73;1.37;;;20.70;68.30;;;;;;4958886;28;20464;-73
2022/06/14 03:10:53;;;;;;;2.90;1.43;;;20.70;68.40;;;;;;4949951;28;20470;-74
2022/06/14 03:13:46;;;;;;;2.40;1.20;;;20.70;68.30;;;;;;4960172;28;20492;-72
2022/06/14 03:16:36;;;;;;;1.50;1.17;;;20.70;68.30;;;;;;4955366;28;20786;-72
2022/06/14 03:19:19;;;;;;;1.60;1.13;;;20.60;68.20;;;;;;4968805;28;20459;-72
2022/06/14 03:22:03;;;;;;;2.40;1.00;;;20.60;68.30;;;;;;4975503;28;20933;-72
2022/06/14 03:24:54;;;;;;;1.57;1.23;;;20.60;68.40;;;;;;4988833;28;20804;-72
2022/06/14 03:27:34;;;;;;;2.73;1.53;;;20.60;68.30;;;;;;4975911;28;20453;-72
2022/06/14 03:30:11;;;;;;;2.57;1.53;;;20.50;68.20;;;;;;4988558;28;20439;-71
2022/06/14 03:32:49;;;;;;;2.00;1.07;;;20.50;68.30;;;;;;4974333;28;20526;-72
2022/06/14 03:35:21;;;;;;;2.20;1.40;;;20.50;68.30;;;;;;4975471;28;20439;-72
2022/06/14 03:37:47;;;;;;;2.40;1.40;;;20.50;68.20;;;;;;4974158;28;20433;-72
2022/06/14 03:40:19;;;;;;;2.47;1.53;;;20.50;68.20;;;;;;4975275;28;20531;-72
2022/06/14 03:42:48;;;;;;;2.47;1.53;;;20.50;68.20;;;;;;4974637;28;21099;-71
2022/06/14 03:45:25;;;;;;;1.53;1.23;;;20.50;68.20;;;;;;4975165;28;20421;-71
2022/06/14 03:47:58;;;;;;;1.57;1.13;;;20.40;68.10;;;;;;4973680;28;20437;-72
2022/06/14 03:51:07;;;;;;;5.60;1.40;;;20.40;68.10;;;;;;4974977;28;20656;-72
2022/06/14 03:54:03;;;;;;;1.53;1.43;;;20.40;68.20;;;;;;4897002;29;20466;-72
2022/06/14 03:56:48;;;;;;;3.00;1.10;;;20.40;68.10;;;;;;4959584;28;20445;-72
2022/06/14 03:59:20;;;;;;;1.50;1.40;;;20.30;68.00;;;;;;4954046;29;20430;-71
2022/06/14 04:02:52;;;;;;;2.63;1.20;;;20.30;67.90;;;;;;4954300;28;20503;-71
2022/06/14 04:05:24;;;;;;;3.23;1.23;;;20.30;68.00;;;;;;4954324;29;20469;-71
2022/06/14 04:08:09;;;;;;;1.93;1.43;;;20.30;68.00;;;;;;4969951;28;20500;-71
2022/06/14 04:10:58;;;;;;;1.60;1.23;;;20.30;68.00;;;;;;4955247;28;20448;-71
2022/06/14 04:13:56;;;;;;;1.50;1.30;;;20.20;67.90;;;;;;4954227;29;20491;-71
2022/06/14 04:16:49;;;;;;;2.83;1.40;;;20.20;68.00;;;;;;4953798;29;20456;-71
2022/06/14 04:19:15;;;;;;;5.33;1.70;;;20.20;68.00;;;;;;4954115;29;20493;-71
2022/06/14 04:21:50;;;;;;;2.03;1.60;;;20.20;68.00;;;;;;4972583;28;20488;-71
2022/06/14 04:24:30;;;;;;;1.20;1.07;;;20.20;68.10;;;;;;4974251;28;20168;-71
2022/06/14 04:27:10;;;;;;;3.20;1.60;;;20.20;68.10;;;;;;4956828;28;20549;-72
2022/06/14 04:29:44;;;;;;;2.63;1.30;;;20.20;68.10;;;;;;4954310;28;20480;-71
2022/06/14 04:32:12;;;;;;;1.67;1.27;;;20.10;68.10;;;;;;4973775;28;20447;-71
2022/06/14 04:34:58;;;;;;;2.00;1.40;;;20.10;68.10;;;;;;4972598;28;20752;-71
2022/06/14 04:37:43;;;;;;;2.23;1.40;;;20.10;68.20;;;;;;4972010;28;20476;-71
2022/06/14 04:40:17;;;;;;;2.60;1.57;;;20.10;68.20;;;;;;4972944;28;20601;-71
2022/06/14 04:42:54;;;;;;;2.60;1.50;;;20.10;68.30;;;;;;4973872;28;20408;-71
2022/06/14 04:45:40;;;;;;;2.43;1.53;;;20.00;68.20;;;;;;4956674;28;20453;-71
2022/06/14 04:48:18;;;;;;;1.70;1.60;;;20.00;68.30;;;;;;4972950;28;20432;-71
2022/06/14 04:50:54;;;;;;;2.07;1.30;;;20.00;68.30;;;;;;4973747;28;20447;-71
2022/06/14 04:53:52;;;;;;;3.37;1.30;;;20.00;68.40;;;;;;4956608;28;20436;-72
2022/06/14 04:56:26;;;;;;;3.03;1.73;;;20.00;68.40;;;;;;4973776;28;20485;-72
2022/06/14 04:58:58;;;;;;;1.70;1.60;;;20.00;68.50;;;;;;4935326;28;20971;-71
2022/06/14 05:01:37;;;;;;;2.40;1.30;;;20.00;68.60;;;;;;4972445;28;20469;-71
2022/06/14 05:04:15;;;;;;;1.70;1.30;;;20.00;68.80;;;;;;4972040;28;20443;-72
2022/06/14 05:06:45;;;;;;;6.70;2.60;;;19.90;68.70;;;;;;4972680;28;20428;-72
2022/06/14 05:09:30;;;;;;;2.27;1.57;;;19.90;68.70;;;;;;4956677;28;20507;-71
2022/06/14 05:12:33;;;;;;;2.93;1.60;;;19.90;68.80;;;;;;4973311;28;20929;-71
2022/06/14 05:15:26;;;;;;;2.77;1.93;;;19.90;68.90;;;;;;4961849;28;20460;-71
2022/06/14 05:18:01;;;;;;;1.90;1.57;;;19.90;68.90;;;;;;4973480;28;20519;-71
2022/06/14 05:20:48;;;;;;;2.90;1.40;;;19.90;68.60;;;;;;4955790;28;20452;-71
2022/06/14 05:23:25;;;;;;;3.60;1.73;;;19.80;69.80;;;;;;4973114;28;20902;-71
2022/06/14 05:26:08;;;;;;;2.40;1.60;;;19.90;69.20;;;;;;4971837;28;20812;-71
2022/06/14 05:28:48;;;;;;;5.13;1.23;;;19.80;69.20;;;;;;4956081;28;20467;-71
2022/06/14 05:31:20;;;;;;;2.77;1.60;;;19.80;69.30;;;;;;4971770;28;20452;-71
2022/06/14 05:34:14;;;;;;;2.90;1.33;;;19.80;69.40;;;;;;4971907;28;21022;-72
2022/06/14 05:37:20;;;;;;;2.73;1.77;;;19.80;69.50;;;;;;4971995;28;20441;-72
2022/06/14 05:40:14;;;;;;;2.00;1.50;;;19.80;69.60;;;;;;4970481;28;20451;-71
2022/06/14 05:42:50;;;;;;;2.03;1.53;;;19.80;69.80;;;;;;4971729;28;20469;-71
2022/06/14 05:45:18;;;;;;;2.57;1.93;;;19.80;69.90;;;;;;4971713;28;20445;-71
2022/06/14 05:47:51;;;;;;;2.67;1.50;;;19.80;70.00;;;;;;4973039;28;20410;-71
2022/06/14 05:50:26;;;;;;;3.57;1.70;;;19.80;70.00;;;;;;4955923;28;20419;-71
2022/06/14 05:53:22;;;;;;;2.30;1.30;;;19.80;70.10;;;;;;4971306;28;20450;-71
2022/06/14 05:56:09;;;;;;;2.63;1.70;;;19.80;70.30;;;;;;4964531;28;20460;-71
2022/06/14 05:58:51;;;;;;;2.30;1.50;;;19.70;70.30;;;;;;4972824;28;20443;-72
2022/06/14 06:01:47;;;;;;;3.13;1.60;;;19.80;70.50;;;;;;4955452;28;20498;-71
2022/06/14 06:04:34;;;;;;;2.67;1.53;;;19.70;70.50;;;;;;4972521;28;20469;-71
2022/06/14 06:07:05;;;;;;;3.03;1.97;;;19.70;70.60;;;;;;4970939;28;20440;-71
2022/06/14 06:09:40;;;;;;;2.30;1.60;;;19.70;70.80;;;;;;4972805;28;20486;-71
2022/06/14 06:12:26;;;;;;;3.10;1.90;;;19.70;70.90;;;;;;4971399;28;20430;-71
2022/06/14 06:14:57;;;;;;;2.07;1.70;;;19.70;71.00;;;;;;4972207;28;20411;-70
2022/06/14 06:17:36;;;;;;;4.27;1.90;;;19.70;71.10;;;;;;4971323;28;20964;-71
2022/06/14 06:20:36;;;;;;;1.87;1.67;;;19.70;71.10;;;;;;4972651;28;20446;-72
2022/06/14 06:23:17;;;;;;;3.33;2.20;;;19.70;71.20;;;;;;4970857;28;20995;-71
2022/06/14 06:25:58;;;;;;;4.50;1.90;;;19.70;71.30;;;;;;4940266;28;20934;-71
2022/06/14 06:28:38;;;;;;;3.77;2.00;;;19.70;71.30;;;;;;4940186;28;20530;-72
2022/06/14 06:31:12;;;;;;;3.57;1.67;;;19.70;71.40;;;;;;4971181;28;20441;-71
2022/06/14 06:33:48;;;;;;;3.70;1.80;;;19.70;71.50;;;;;;4972303;28;20430;-71
2022/06/14 06:36:47;;;;;;;2.53;1.47;;;19.70;71.60;;;;;;4971275;28;20540;-72
2022/06/14 06:39:52;;;;;;;3.13;1.90;;;19.70;71.80;;;;;;4936209;29;20404;-72
2022/06/14 06:42:39;;;;;;;2.30;1.93;;;19.70;71.70;;;;;;4935809;29;20444;-71
2022/06/14 06:45:22;;;;;;;2.03;1.70;;;19.70;71.80;;;;;;4951948;29;20438;-72
2022/06/14 06:48:13;;;;;;;5.20;1.87;;;19.60;71.70;;;;;;4953053;28;20507;-71
2022/06/14 06:51:05;;;;;;;4.40;1.77;;;19.70;72.00;;;;;;4954976;28;20503;-71
2022/06/14 06:53:45;;;;;;;3.50;2.20;;;19.60;71.90;;;;;;4956564;28;20408;-71
2022/06/14 06:56:34;;;;;;;3.80;1.97;;;19.70;72.00;;;;;;4960810;28;20799;-72
2022/06/14 06:59:14;;;;;;;4.57;2.00;;;19.70;72.10;;;;;;4975712;28;20430;-71
2022/06/14 07:01:41;;;;;;;3.53;1.83;;;19.60;72.00;;;;;;4974223;28;20983;-71
2022/06/14 07:04:19;;;;;;;2.80;1.90;;;19.70;72.20;;;;;;4974607;28;20394;-72
2022/06/14 07:06:58;;;;;;;2.60;1.73;;;19.70;72.20;;;;;;4975200;28;20446;-71
2022/06/14 07:09:51;;;;;;;2.93;1.73;;;19.70;72.20;;;;;;4975490;28;20410;-71
2022/06/14 07:12:44;;;;;;;3.80;1.93;;;19.70;72.10;;;;;;4974403;28;20435;-71
2022/06/14 07:15:26;;;;;;;4.47;1.97;;;19.70;72.20;;;;;;4973898;28;20454;-71
2022/06/14 07:18:12;;;;;;;2.90;1.87;;;19.70;72.20;;;;;;4974492;28;20447;-71
2022/06/14 07:20:38;;;;;;;3.23;1.90;;;19.70;72.20;;;;;;4974159;28;20474;-72
2022/06/14 07:23:42;;;;;;;3.97;2.50;;;19.70;72.30;;;;;;4975293;28;20414;-71
2022/06/14 07:26:19;;;;;;;3.50;1.80;;;19.70;72.20;;;;;;4975329;28;20521;-71
2022/06/14 07:28:53;;;;;;;4.80;1.63;;;19.80;72.40;;;;;;4958117;28;20430;-71
2022/06/14 07:31:33;;;;;;;3.50;1.87;;;19.70;72.30;;;;;;4973987;28;20824;-71
2022/06/14 07:34:02;;;;;;;2.00;1.73;;;19.80;72.30;;;;;;4973716;28;20518;-71
2022/06/14 07:36:52;;;;;;;3.20;1.80;;;19.70;72.20;;;;;;4973784;28;20462;-72
2022/06/14 07:39:23;;;;;;;4.87;2.23;;;19.80;72.40;;;;;;4957678;28;20417;-71
2022/06/14 07:42:25;;;;;;;4.70;1.77;;;19.80;72.40;;;;;;4953921;28;20459;-71
2022/06/14 07:45:04;;;;;;;2.20;1.50;;;19.80;72.40;;;;;;4955519;28;20494;-71
2022/06/14 07:47:48;;;;;;;5.30;2.20;;;19.80;72.40;;;;;;4954431;29;20404;-71
2022/06/14 07:50:24;;;;;;;3.37;2.10;;;19.80;72.40;;;;;;4954103;28;20803;-71
2022/06/14 07:53:12;;;;;;;3.17;1.80;;;19.80;72.40;;;;;;4955274;28;20929;-71
2022/06/14 07:55:56;;;;;;;3.37;1.60;;;19.80;72.40;;;;;;4955706;28;20909;-71
2022/06/14 07:58:38;;;;;;;3.50;1.67;;;19.80;72.40;;;;;;4955466;28;20421;-72
2022/06/14 08:01:36;;;;;;;4.30;2.00;;;19.80;72.50;;;;;;4953064;28;20507;-71
2022/06/14 08:04:54;;;;;;;3.77;2.30;;;19.80;72.50;;;;;;4937065;29;20417;-72
2022/06/14 08:07:20;;;;;;;6.10;2.03;;;19.80;72.50;;;;;;4933483;29;20536;-71
2022/06/14 08:10:13;;;;;;;3.67;2.00;;;19.80;72.50;;;;;;4962202;28;20427;-71
2022/06/14 08:12:51;;;;;;;6.10;2.70;;;19.80;72.50;;;;;;4973426;28;20822;-71
2022/06/14 08:15:28;;;;;;;3.10;2.27;;;19.80;72.60;;;;;;4973136;28;20455;-72
2022/06/14 08:18:03;;;;;;;4.17;2.20;;;19.80;72.60;;;;;;4973144;28;20427;-71
2022/06/14 08:20:50;;;;;;;3.93;2.57;;;19.80;72.60;;;;;;4955658;28;20465;-71
2022/06/14 08:23:25;;;;;;;6.70;2.50;;;19.80;72.70;;;;;;4973044;28;20412;-71
2022/06/14 08:26:24;;;;;;;4.37;2.40;;;19.90;72.80;;;;;;4968437;28;20458;-71
2022/06/14 08:29:07;;;;;;;5.03;2.40;;;19.90;72.80;;;;;;4919433;29;20843;-71
2022/06/14 08:31:46;;;;;;;2.87;2.40;;;19.90;72.80;;;;;;4954594;28;20443;-71
2022/06/14 08:34:19;;;;;;;5.10;2.40;;;19.90;72.90;;;;;;4954645;28;20514;-71
2022/06/14 08:37:25;;;;;;;4.00;2.90;;;20.00;72.90;;;;;;4953539;29;20444;-71
2022/06/14 08:40:32;;;;;;;5.97;3.03;;;20.00;72.80;;;;;;4936742;29;20550;-72
2022/06/14 08:43:03;;;;;;;4.80;3.20;;;20.00;72.80;;;;;;4921201;29;20946;-71
2022/06/14 08:45:57;;;;;;;5.10;3.27;;;20.00;72.80;;;;;;4937600;29;20428;-71
2022/06/14 08:48:56;;;;;;;4.80;3.23;;;20.00;72.90;;;;;;4969413;28;21030;-71
2022/06/14 08:51:53;;;;;;;5.80;3.70;;;20.10;73.00;;;;;;4959130;28;20469;-71
2022/06/14 08:54:25;;;;;;;6.30;2.90;;;20.10;73.00;;;;;;4954259;28;20416;-71
2022/06/14 08:57:19;;;;;;;5.30;3.13;;;20.10;73.00;;;;;;4944235;29;20444;-71
2022/06/14 09:00:15;;;;;;;6.27;3.70;;;20.10;73.00;;;;;;4969080;28;20484;-71
2022/06/14 09:02:43;;;;;;;5.37;3.40;;;20.20;73.20;;;;;;4954226;29;20811;-71
2022/06/14 09:05:32;;;;;;;6.27;2.90;;;20.20;73.30;;;;;;4954380;28;20404;-71
2022/06/14 09:08:19;;;;;;;4.77;3.30;;;20.20;73.20;;;;;;4953881;28;20443;-71
2022/06/14 09:11:24;;;;;;;3.53;3.13;;;20.30;73.40;;;;;;4952779;28;20465;-71
2022/06/14 09:14:20;;;;;;;4.70;3.50;;;20.30;73.40;;;;;;4952361;28;20423;-71
2022/06/14 09:17:19;;;;;;;5.93;3.93;;;20.30;73.30;;;;;;4937177;29;20452;-72
2022/06/14 09:20:02;;;;;;;4.90;3.40;;;20.40;73.40;;;;;;4968598;28;20453;-71
2022/06/14 09:22:36;;;;;;;5.50;3.70;;;20.40;73.40;;;;;;4936554;29;20522;-71
2022/06/14 09:25:20;;;;;;;3.67;3.33;;;20.40;74.20;;;;;;4954284;28;20407;-71
2022/06/14 09:28:07;;;;;;;5.87;3.57;;;20.50;73.40;;;;;;4936695;29;20521;-72
2022/06/14 09:30:41;;;;;;;4.50;3.50;;;20.50;73.40;;;;;;4936894;28;20441;-71
2022/06/14 09:33:32;;;;;;;3.73;3.30;;;20.50;73.40;;;;;;4952723;29;20421;-71
2022/06/14 09:36:25;;;;;;;5.73;2.90;;;20.60;73.40;;;;;;4953802;28;20476;-71
2022/06/14 09:39:02;;;;;;;6.93;3.90;;;20.60;73.40;;;;;;4952176;29;20468;-71
2022/06/14 09:42:04;;;;;;;6.30;3.60;;;20.70;73.50;;;;;;4952300;28;20481;-71
2022/06/14 09:44:35;;;;;;;5.67;3.30;;;20.70;73.40;;;;;;4936559;29;20436;-71
2022/06/14 09:47:08;;;;;;;3.53;3.20;;;20.70;73.40;;;;;;4936664;29;20921;-71
2022/06/14 09:49:46;;;;;;;4.30;3.43;;;20.80;73.40;;;;;;4936462;29;20417;-71
2022/06/14 09:52:39;;;;;;;5.93;3.47;;;20.80;73.30;;;;;;4952297;28;20553;-72
2022/06/14 09:55:20;;;;;;;5.10;3.40;;;20.80;73.40;;;;;;4951965;29;20477;-72
2022/06/14 09:58:01;;;;;;;5.43;3.37;;;20.90;73.40;;;;;;4952565;29;20429;-72
2022/06/14 10:00:46;;;;;;;5.03;4.33;;;20.90;73.20;;;;;;4936160;28;20473;-72
2022/06/14 10:03:38;;;;;;;4.67;3.73;;;21.00;73.30;;;;;;4952342;29;20512;-71
2022/06/14 10:06:37;;;;;;;5.50;4.07;;;21.00;73.20;;;;;;4953643;28;20913;-71
2022/06/14 10:09:34;;;;;;;4.30;3.80;;;21.10;73.20;;;;;;4952172;29;20485;-72
2022/06/14 10:12:22;;;;;;;5.10;4.50;;;21.10;73.30;;;;;;4951746;28;20468;-71
2022/06/14 10:15:06;;;;;;;5.27;4.37;;;21.10;73.10;;;;;;4971225;28;20409;-71
2022/06/14 10:17:34;;;;;;;7.57;4.60;;;21.10;73.00;;;;;;4973017;28;20416;-71
2022/06/14 10:20:28;;;;;;;4.37;3.60;;;21.20;73.00;;;;;;4973656;28;20509;-71
2022/06/14 10:23:06;;;;;;;5.33;4.77;;;21.20;72.80;;;;;;4973829;28;20933;-71
2022/06/14 10:28:58;;;;;;;6.57;4.57;;;21.30;72.50;;;;;;4977769;28;20420;-71
2022/06/14 10:32:01;;;;;;;7.73;4.63;;;21.40;72.40;;;;;;4976604;28;20453;-70
2022/06/14 10:35:02;;;;;;;25.50;5.80;;;21.40;72.30;;;;;;4977000;28;20405;-71
2022/06/14 10:37:53;;;;;;;24.40;5.10;;;21.50;72.10;;;;;;4950427;28;20842;-70
2022/06/14 10:40:35;;;;;;;18.73;5.50;;;21.60;72.30;;;;;;4975530;28;20838;-71
2022/06/14 10:43:19;;;;;;;26.83;6.00;;;21.60;72.10;;;;;;4976664;28;20413;-70
2022/06/14 10:45:57;;;;;;;16.00;5.37;;;21.70;71.90;;;;;;4975554;28;20445;-70
2022/06/14 10:48:23;;;;;;;18.07;5.93;;;21.70;71.80;;;;;;4975683;28;20426;-70
2022/06/14 10:51:14;;;;;;;16.87;5.60;;;21.70;71.60;;;;;;4975387;28;20527;-70
2022/06/14 10:54:25;;;;;;;15.87;5.80;;;21.80;71.50;;;;;;4976492;28;20191;-70
2022/06/14 10:57:08;;;;;;;16.30;5.17;;;21.80;71.30;;;;;;4926170;28;20916;-70
2022/06/14 10:59:55;;;;;;;20.50;5.27;;;21.90;71.30;;;;;;4976233;28;20429;-70
2022/06/14 11:02:49;;;;;;;10.40;5.27;;;21.90;72.10;;;;;;4974891;28;20724;-70
2022/06/14 11:05:38;;;;;;;10.23;5.07;;;22.00;71.30;;;;;;4975212;28;20437;-70
2022/06/14 11:08:25;;;;;;;10.87;5.03;;;22.00;71.10;;;;;;4975978;28;20426;-68
2022/06/14 11:11:06;;;;;;;13.17;5.50;;;22.00;71.00;;;;;;4958777;28;20803;-68
2022/06/14 11:13:55;;;;;;;13.27;6.00;;;22.00;71.00;;;;;;4976311;28;20448;-68
2022/06/14 11:16:31;;;;;;;12.73;5.60;;;22.10;71.00;;;;;;4974919;28;20540;-68
2022/06/14 11:19:31;;;;;;;8.83;6.50;;;22.10;70.90;;;;;;4974876;28;20405;-68
2022/06/14 11:22:39;;;;;;;7.13;5.30;;;22.20;71.00;;;;;;4974552;28;20446;-68
2022/06/14 11:25:14;;;;;;;9.77;5.30;;;22.20;70.90;;;;;;4958860;28;20453;-68
2022/06/14 11:28:02;;;;;;;9.37;5.10;;;22.30;70.90;;;;;;4974711;28;20442;-68
2022/06/14 11:31:03;;;;;;;9.17;4.97;;;22.30;70.90;;;;;;4974866;28;20428;-68
2022/06/14 11:33:43;;;;;;;8.93;4.60;;;22.40;70.90;;;;;;4975708;28;21027;-68
2022/06/14 11:36:15;;;;;;;8.40;5.57;;;22.40;70.80;;;;;;4957635;28;20951;-68
2022/06/14 11:38:43;;;;;;;7.33;5.10;;;22.40;70.60;;;;;;4974581;28;20542;-68
2022/06/14 11:41:15;;;;;;;11.87;5.30;;;22.50;70.60;;;;;;4974303;28;20477;-68
2022/06/14 11:44:17;;;;;;;8.37;5.50;;;22.50;70.40;;;;;;4957984;28;20440;-67
2022/06/14 11:47:01;;;;;;;10.40;5.70;;;22.50;70.20;;;;;;4974423;28;20447;-68
2022/06/14 11:50:08;;;;;;;6.37;5.17;;;22.60;70.30;;;;;;4974378;28;20414;-68
2022/06/14 11:53:22;;;;;;;8.47;5.60;;;22.60;70.20;;;;;;4934316;29;20459;-68
2022/06/14 11:55:56;;;;;;;7.73;5.50;;;22.70;70.10;;;;;;4922763;28;20507;-67
2022/06/14 11:58:58;;;;;;;6.20;4.90;;;22.70;70.00;;;;;;4975177;28;20437;-68
2022/06/14 12:01:45;;;;;;;6.73;5.00;;;22.70;70.00;;;;;;4974848;28;20481;-68
2022/06/14 12:04:26;;;;;;;5.67;4.80;;;22.80;70.10;;;;;;4975061;28;20411;-68
2022/06/14 12:07:21;;;;;;;8.70;5.63;;;22.80;69.90;;;;;;4958306;28;20429;-68
2022/06/14 12:10:25;;;;;;;7.27;5.40;;;22.90;69.90;;;;;;4964966;28;20963;-68
2022/06/14 12:13:31;;;;;;;9.50;5.23;;;22.90;69.80;;;;;;4955794;28;20422;-68
2022/06/14 12:16:11;;;;;;;6.07;5.17;;;23.00;70.10;;;;;;4955520;28;20449;-68
2022/06/14 12:18:41;;;;;;;7.00;4.90;;;23.00;70.10;;;;;;4954684;29;20469;-68
2022/06/14 12:21:57;;;;;;;10.20;5.27;;;23.00;70.00;;;;;;4954154;28;20478;-68
2022/06/14 12:27:19;;;;;;;6.83;5.37;;;23.10;69.70;;;;;;4970376;28;20406;-68
2022/06/14 12:29:58;;;;;;;7.40;5.47;;;23.10;69.40;;;;;;4938618;29;20471;-68
2022/06/14 12:32:35;;;;;;;6.97;5.33;;;23.20;69.50;;;;;;4955258;28;20835;-68
2022/06/14 12:35:17;;;;;;;14.53;5.67;;;23.20;69.40;;;;;;4955344;28;20417;-68
2022/06/14 12:37:50;;;;;;;7.47;5.10;;;23.20;68.90;;;;;;4969816;28;20522;-68
2022/06/14 12:40:25;;;;;;;7.43;5.10;;;23.30;68.90;;;;;;4974289;28;20454;-68
2022/06/14 12:43:15;;;;;;;6.27;5.57;;;23.30;69.00;;;;;;4973187;28;20462;-68
2022/06/14 12:45:58;;;;;;;8.60;5.07;;;23.40;69.00;;;;;;4973359;28;20402;-68
2022/06/14 12:48:43;;;;;;;10.50;5.30;;;23.40;69.00;;;;;;4974095;28;20445;-68
2022/06/14 12:51:18;;;;;;;12.13;5.13;;;23.40;69.10;;;;;;4974336;28;20846;-68
2022/06/14 12:53:50;;;;;;;5.00;4.50;;;23.50;69.10;;;;;;4973140;28;20422;-68
2022/06/14 12:56:32;;;;;;;6.73;4.80;;;23.50;69.10;;;;;;4972953;28;20441;-68
2022/06/14 12:59:20;;;;;;;6.73;5.43;;;23.50;69.10;;;;;;4957017;28;20433;-68
2022/06/14 13:01:58;;;;;;;5.50;4.20;;;23.60;69.20;;;;;;4973946;28;20496;-68
2022/06/14 13:04:30;;;;;;;5.37;4.30;;;23.60;69.00;;;;;;4974017;28;20438;-68
2022/06/14 13:07:15;;;;;;;6.03;4.77;;;23.70;69.10;;;;;;4972955;28;20854;-68
2022/06/14 13:09:55;;;;;;;6.20;4.60;;;23.70;68.70;;;;;;4972926;28;20429;-68
2022/06/14 13:12:50;;;;;;;8.80;4.40;;;23.70;68.50;;;;;;4938271;29;21096;-68
2022/06/14 13:15:35;;;;;;;5.87;4.40;;;23.80;68.80;;;;;;4953620;29;20430;-68
2022/06/14 13:18:16;;;;;;;5.80;4.30;;;23.80;68.80;;;;;;4953570;29;20900;-68
2022/06/14 13:21:12;;;;;;;6.80;4.63;;;23.90;69.00;;;;;;4954660;28;20842;-68
2022/06/14 13:24:00;;;;;;;7.03;4.10;;;23.90;68.70;;;;;;4953536;29;20431;-68
2022/06/14 13:26:44;;;;;;;7.47;4.43;;;23.90;68.60;;;;;;4954484;28;20501;-68
2022/06/14 13:29:20;;;;;;;5.63;4.63;;;24.00;68.40;;;;;;4969291;28;20415;-68
2022/06/14 13:32:05;;;;;;;5.90;3.80;;;24.00;68.30;;;;;;4954273;28;20427;-68
2022/06/14 13:34:56;;;;;;;6.20;4.83;;;24.10;68.00;;;;;;4953295;29;20417;-68
2022/06/14 13:37:25;;;;;;;7.30;4.67;;;24.10;67.40;;;;;;4965761;28;20440;-68
2022/06/14 13:40:10;;;;;;;6.73;4.10;;;24.10;66.90;;;;;;4972472;28;20517;-68
2022/06/14 13:43:06;;;;;;;5.70;4.10;;;24.20;66.90;;;;;;4972164;28;20404;-68
2022/06/14 13:45:55;;;;;;;5.47;4.20;;;24.20;67.20;;;;;;4972233;28;20413;-68
2022/06/14 13:48:30;;;;;;;6.13;3.60;;;24.20;67.30;;;;;;4972420;28;20413;-68
2022/06/14 13:51:08;;;;;;;4.73;4.17;;;24.30;67.60;;;;;;4956446;28;20449;-68
2022/06/14 13:53:45;;;;;;;4.70;3.57;;;24.40;67.70;;;;;;4972238;28;20879;-68
2022/06/14 13:56:22;;;;;;;5.53;3.97;;;24.40;67.40;;;;;;4956268;28;20442;-68
2022/06/14 13:59:11;;;;;;;6.33;4.10;;;24.40;67.30;;;;;;4973328;28;20406;-68
2022/06/14 14:02:09;;;;;;;5.17;3.77;;;24.50;67.10;;;;;;4968248;28;21014;-67
2022/06/14 14:05:00;;;;;;;4.90;4.40;;;24.50;67.10;;;;;;4971999;28;20456;-68
2022/06/14 14:07:38;;;;;;;7.90;3.93;;;24.60;67.20;;;;;;4976089;28;20450;-68
2022/06/14 14:10:07;;;;;;;5.23;4.03;;;24.60;67.10;;;;;;4977195;28;20445;-68
2022/06/14 14:12:46;;;;;;;6.40;3.53;;;24.60;67.10;;;;;;4976340;28;20420;-68
2022/06/14 14:15:24;;;;;;;4.17;3.43;;;24.70;67.10;;;;;;4975986;28;20402;-68
2022/06/14 14:18:14;;;;;;;5.10;4.10;;;24.70;66.90;;;;;;4975753;28;20436;-68